createdAt,value
2022-11-30T00:00:57.673Z,66.10
2022-11-30T00:03:26.219Z,66.00
2022-11-30T00:05:54.210Z,65.90
2022-11-30T00:08:22.131Z,65.80
2022-11-30T00:10:51.491Z,66.10
2022-11-30T00:13:19.978Z,66.10
2022-11-30T00:15:47.938Z,66.00
2022-11-30T00:18:17.794Z,65.90
2022-11-30T00:20:46.250Z,66.10
2022-11-30T00:23:14.145Z,66.10
2022-11-30T00:25:42.538Z,66.00
2022-11-30T00:28:12.035Z,65.80
2022-11-30T00:30:40.552Z,65.90
2022-11-30T00:33:08.636Z,65.90
2022-11-30T00:35:36.670Z,65.80
2022-11-30T00:38:04.657Z,65.80
2022-11-30T00:40:32.818Z,65.80
2022-11-30T00:43:00.624Z,65.80
2022-11-30T00:45:30.308Z,66.50
2022-11-30T00:47:58.358Z,66.60
2022-11-30T00:50:26.765Z,65.80
2022-11-30T00:52:54.716Z,65.80
2022-11-30T00:55:22.693Z,65.70
2022-11-30T00:57:50.688Z,65.70
2022-11-30T01:00:19.179Z,65.80
2022-11-30T01:02:49.028Z,65.90
2022-11-30T01:05:17.026Z,65.70
2022-11-30T01:07:45.502Z,65.80
2022-11-30T01:10:13.553Z,65.80
2022-11-30T01:12:41.511Z,65.80
2022-11-30T01:15:10.424Z,65.70
2022-11-30T01:17:38.377Z,65.80
2022-11-30T01:20:09.163Z,65.80
2022-11-30T01:22:37.006Z,65.80
2022-11-30T01:25:05.356Z,65.70
2022-11-30T01:27:33.637Z,65.80
2022-11-30T01:30:01.667Z,65.70
2022-11-30T01:32:29.588Z,65.60
2022-11-30T01:34:57.870Z,65.70
2022-11-30T01:37:27.302Z,65.80
2022-11-30T01:39:55.688Z,65.70
2022-11-30T01:42:23.664Z,65.70
2022-11-30T01:44:54.391Z,65.80
2022-11-30T01:47:26.628Z,65.80
2022-11-30T01:49:56.945Z,65.70
2022-11-30T01:52:27.562Z,65.80
2022-11-30T01:54:58.023Z,65.60
2022-11-30T01:57:27.515Z,65.70
2022-11-30T01:59:56.285Z,65.70
2022-11-30T02:02:42.715Z,65.70
2022-11-30T02:05:11.169Z,65.60
2022-11-30T02:07:40.746Z,65.70
2022-11-30T02:10:14.448Z,65.50
2022-11-30T02:12:49.641Z,65.70
2022-11-30T02:15:21.068Z,65.70
2022-11-30T02:17:53.268Z,65.70
2022-11-30T02:20:35.946Z,65.70
2022-11-30T02:23:24.303Z,65.70
2022-11-30T02:25:58.329Z,65.70
2022-11-30T02:29:03.283Z,65.80
2022-11-30T02:31:32.962Z,65.70
2022-11-30T02:34:00.905Z,65.60
2022-11-30T02:36:28.819Z,65.70
2022-11-30T02:38:56.967Z,65.70
2022-11-30T02:41:24.860Z,65.60
2022-11-30T02:43:53.310Z,65.60
2022-11-30T02:46:25.917Z,65.50
2022-11-30T02:48:59.739Z,65.70
2022-11-30T02:51:27.682Z,65.60
2022-11-30T02:53:56.124Z,65.60
2022-11-30T02:56:25.220Z,65.70
2022-11-30T02:58:53.654Z,65.60
2022-11-30T03:01:23.091Z,65.70
2022-11-30T03:07:38.197Z,65.60
2022-11-30T03:10:07.245Z,65.60
2022-11-30T03:12:35.319Z,65.90
2022-11-30T03:15:03.447Z,65.80
2022-11-30T03:17:32.744Z,65.60
2022-11-30T03:20:00.975Z,65.70
2022-11-30T03:22:28.703Z,65.60
2022-11-30T03:24:56.586Z,65.60
2022-11-30T03:27:24.240Z,65.30
2022-11-30T03:29:52.204Z,65.60
2022-11-30T03:32:20.148Z,65.60
2022-11-30T03:34:49.619Z,65.60
2022-11-30T03:37:17.413Z,65.60
2022-11-30T03:39:45.201Z,65.60
2022-11-30T03:42:12.935Z,65.40
2022-11-30T03:44:40.597Z,65.50
2022-11-30T03:47:08.635Z,65.60
2022-11-30T03:49:36.307Z,65.60
2022-11-30T03:52:06.062Z,65.50
2022-11-30T03:54:34.073Z,65.50
2022-11-30T03:57:02.454Z,65.60
2022-11-30T03:59:30.332Z,65.60
2022-11-30T04:01:58.730Z,65.40
2022-11-30T04:04:26.658Z,65.50
2022-11-30T04:06:55.059Z,65.50
2022-11-30T04:09:24.286Z,65.50
2022-11-30T04:11:52.154Z,65.50
2022-11-30T04:14:20.070Z,65.40
2022-11-30T04:16:48.399Z,65.50
2022-11-30T04:19:16.471Z,65.50
2022-11-30T04:21:44.309Z,65.50
2022-11-30T04:24:12.120Z,65.50
2022-11-30T04:26:41.875Z,65.30
2022-11-30T04:29:09.928Z,65.50
2022-11-30T04:31:37.967Z,65.50
2022-11-30T04:34:05.854Z,65.50
2022-11-30T04:36:33.912Z,65.50
2022-11-30T04:39:02.304Z,65.60
2022-11-30T04:41:30.296Z,65.40
2022-11-30T04:44:00.124Z,65.50
2022-11-30T04:46:28.069Z,65.50
2022-11-30T04:48:56.075Z,65.40
2022-11-30T04:51:23.978Z,65.50
2022-11-30T04:53:52.353Z,65.50
2022-11-30T04:56:20.281Z,65.50
2022-11-30T04:58:48.300Z,65.50
2022-11-30T05:01:17.801Z,65.50
2022-11-30T05:03:45.836Z,65.50
2022-11-30T05:06:13.781Z,65.50
2022-11-30T05:08:42.174Z,65.50
2022-11-30T05:11:10.093Z,65.50
2022-11-30T05:13:38.229Z,65.50
2022-11-30T05:16:06.647Z,65.60
2022-11-30T05:18:36.789Z,65.60
2022-11-30T05:21:04.793Z,65.50
2022-11-30T05:23:32.835Z,65.60
2022-11-30T05:26:03.296Z,65.70
2022-11-30T05:28:31.339Z,65.70
2022-11-30T05:31:04.154Z,65.60
2022-11-30T05:33:32.207Z,65.50
2022-11-30T05:36:05.827Z,65.40
2022-11-30T05:38:36.881Z,65.50
2022-11-30T05:41:05.294Z,65.60
2022-11-30T05:43:33.045Z,65.50
2022-11-30T05:46:02.249Z,65.60
2022-11-30T05:48:30.221Z,65.40
2022-11-30T05:51:07.621Z,65.50
2022-11-30T05:53:35.788Z,65.50
2022-11-30T05:56:04.765Z,65.50
2022-11-30T05:58:33.256Z,65.40
2022-11-30T06:01:01.228Z,65.50
2022-11-30T06:03:29.904Z,65.40
2022-11-30T06:05:58.344Z,65.40
2022-11-30T06:08:27.909Z,65.50
2022-11-30T06:10:56.389Z,65.40
2022-11-30T06:13:28.743Z,65.40
2022-11-30T06:16:00.068Z,65.40
2022-11-30T06:18:28.151Z,65.40
2022-11-30T06:20:56.202Z,65.60
2022-11-30T06:23:24.040Z,65.60
2022-11-30T06:25:53.156Z,65.40
2022-11-30T06:28:20.875Z,65.30
2022-11-30T06:30:49.927Z,65.50
2022-11-30T06:33:17.896Z,65.40
2022-11-30T06:35:47.202Z,65.50
2022-11-30T06:38:15.491Z,65.40
2022-11-30T06:40:43.240Z,65.60
2022-11-30T06:43:12.825Z,65.50
2022-11-30T06:45:40.583Z,65.40
2022-11-30T06:48:08.800Z,65.50
2022-11-30T06:50:36.506Z,65.60
2022-11-30T06:53:04.708Z,65.40
2022-11-30T06:55:32.966Z,65.40
2022-11-30T06:58:06.891Z,65.60
2022-11-30T07:00:36.307Z,65.30
2022-11-30T07:03:05.115Z,65.40
2022-11-30T07:05:33.366Z,65.30
2022-11-30T07:08:01.589Z,65.50
2022-11-30T07:10:29.633Z,65.60
2022-11-30T07:12:58.060Z,65.50
2022-11-30T07:15:25.789Z,65.40
2022-11-30T07:17:55.098Z,65.40
2022-11-30T07:20:23.104Z,65.40
2022-11-30T07:22:51.158Z,65.40
2022-11-30T07:25:36.520Z,65.40
2022-11-30T07:28:04.876Z,65.50
2022-11-30T07:30:32.739Z,65.60
2022-11-30T07:33:02.451Z,65.30
2022-11-30T07:35:30.430Z,65.60
2022-11-30T07:37:58.338Z,65.30
2022-11-30T07:40:26.839Z,65.40
2022-11-30T07:42:56.385Z,65.50
2022-11-30T07:45:24.623Z,65.50
2022-11-30T07:47:52.436Z,65.40
2022-11-30T07:50:22.096Z,65.40
2022-11-30T07:52:50.048Z,65.40
2022-11-30T07:55:20.608Z,65.50
2022-11-30T07:57:48.426Z,65.40
2022-11-30T08:00:16.940Z,65.50
2022-11-30T08:02:44.732Z,65.50
2022-11-30T08:05:12.981Z,65.50
2022-11-30T08:07:42.293Z,65.90
2022-11-30T08:10:11.822Z,65.90
2022-11-30T08:12:39.496Z,65.70
2022-11-30T08:15:19.718Z,65.60
2022-11-30T08:17:54.451Z,66.00
2022-11-30T08:20:23.890Z,66.00
2022-11-30T08:22:53.305Z,65.90
2022-11-30T08:25:21.835Z,66.10
2022-11-30T08:27:49.925Z,66.00
2022-11-30T08:30:18.804Z,66.00
2022-11-30T08:32:46.839Z,65.90
2022-11-30T08:35:15.057Z,65.90
2022-11-30T08:37:43.086Z,65.90
2022-11-30T08:40:13.330Z,66.00
2022-11-30T08:42:41.355Z,66.00
2022-11-30T08:45:09.914Z,66.00
2022-11-30T08:47:38.199Z,65.70
2022-11-30T08:50:06.859Z,66.00
2022-11-30T08:52:35.200Z,66.00
2022-11-30T08:55:03.169Z,65.80
2022-11-30T08:57:33.217Z,66.00
2022-11-30T09:00:01.130Z,66.00
2022-11-30T09:02:29.695Z,66.10
2022-11-30T09:04:57.684Z,66.00
2022-11-30T09:07:25.628Z,66.00
2022-11-30T09:09:53.298Z,66.00
2022-11-30T09:12:21.553Z,66.10
2022-11-30T09:14:57.429Z,66.10
2022-11-30T09:17:26.391Z,66.10
2022-11-30T09:19:54.706Z,66.00
2022-11-30T09:22:22.527Z,66.10
2022-11-30T09:24:50.893Z,66.10
2022-11-30T09:27:18.981Z,66.10
2022-11-30T09:29:47.451Z,66.00
2022-11-30T09:32:16.809Z,66.10
2022-11-30T09:34:45.310Z,66.20
2022-11-30T09:37:13.632Z,66.10
2022-11-30T09:39:41.687Z,66.10
2022-11-30T09:42:25.521Z,65.90
2022-11-30T09:44:58.193Z,65.80
2022-11-30T09:47:40.376Z,65.80
2022-11-30T09:50:13.823Z,66.00
2022-11-30T09:52:43.099Z,66.00
2022-11-30T09:55:12.369Z,66.10
2022-11-30T09:57:44.964Z,66.10
2022-11-30T10:00:15.571Z,65.90
2022-11-30T10:02:45.156Z,66.00
2022-11-30T10:05:14.720Z,66.10
2022-11-30T10:07:50.095Z,66.10
2022-11-30T10:10:32.126Z,66.00
2022-11-30T10:13:04.438Z,66.10
2022-11-30T10:15:37.151Z,65.90
2022-11-30T10:18:10.910Z,66.00
2022-11-30T10:20:53.643Z,66.20
2022-11-30T10:23:35.903Z,66.00
2022-11-30T10:26:06.026Z,65.90
2022-11-30T10:28:46.980Z,66.20
2022-11-30T10:31:16.597Z,66.20
2022-11-30T10:33:47.419Z,66.30
2022-11-30T10:36:25.767Z,66.10
2022-11-30T10:38:55.199Z,65.90
2022-11-30T10:41:23.758Z,66.10
2022-11-30T10:43:54.498Z,66.20
2022-11-30T10:46:23.381Z,66.20
2022-11-30T10:48:55.221Z,66.10
2022-11-30T10:51:23.047Z,66.10
2022-11-30T10:53:51.197Z,66.00
2022-11-30T10:56:19.033Z,66.10
2022-11-30T10:58:54.939Z,66.00
2022-11-30T11:01:34.043Z,65.90
2022-11-30T11:04:13.931Z,66.30
2022-11-30T11:06:44.442Z,66.10
2022-11-30T11:09:25.511Z,66.20
2022-11-30T11:11:54.830Z,66.00
2022-11-30T11:14:24.324Z,66.10
2022-11-30T11:16:54.337Z,66.00
2022-11-30T11:19:33.217Z,65.90
2022-11-30T11:22:02.131Z,66.10
2022-11-30T11:24:30.424Z,66.20
2022-11-30T11:26:58.519Z,66.00
2022-11-30T11:29:32.618Z,66.00
2022-11-30T11:32:08.341Z,65.90
2022-11-30T11:34:38.987Z,66.00
2022-11-30T11:37:08.084Z,66.30
2022-11-30T11:39:36.055Z,66.00
2022-11-30T11:42:04.122Z,66.10
2022-11-30T11:44:32.055Z,66.00
2022-11-30T11:47:01.001Z,66.10
2022-11-30T11:49:29.899Z,65.90
2022-11-30T11:52:03.383Z,66.10
2022-11-30T11:54:33.147Z,66.10
2022-11-30T11:57:01.632Z,66.30
2022-11-30T11:59:36.268Z,66.10
2022-11-30T12:02:06.951Z,66.00
2022-11-30T12:04:41.305Z,66.10
2022-11-30T12:07:22.880Z,66.00
2022-11-30T12:09:57.923Z,66.00
2022-11-30T12:12:26.371Z,66.00
2022-11-30T12:14:54.360Z,66.20
2022-11-30T12:17:35.621Z,66.10
2022-11-30T12:20:08.303Z,66.10
2022-11-30T12:22:48.087Z,66.20
2022-11-30T12:25:22.107Z,66.10
2022-11-30T12:27:54.449Z,66.00
2022-11-30T12:30:23.827Z,66.20
2022-11-30T12:33:12.617Z,66.30
2022-11-30T12:35:58.392Z,66.20
2022-11-30T12:38:34.997Z,66.40
2022-11-30T12:41:07.450Z,66.30
2022-11-30T12:43:41.834Z,66.30
2022-11-30T12:46:13.440Z,66.30
2022-11-30T12:48:43.703Z,66.30
2022-11-30T12:51:16.270Z,66.30
2022-11-30T12:53:48.054Z,66.20
2022-11-30T12:56:22.431Z,66.40
2022-11-30T12:58:53.150Z,66.30
2022-11-30T13:01:33.161Z,66.40
2022-11-30T13:04:04.451Z,66.20
2022-11-30T13:06:34.344Z,66.30
2022-11-30T13:09:06.562Z,66.40
2022-11-30T13:11:37.553Z,66.30
2022-11-30T13:14:07.853Z,66.40
2022-11-30T13:16:35.933Z,66.20
2022-11-30T13:19:09.742Z,66.20
2022-11-30T13:21:40.729Z,66.30
2022-11-30T13:24:14.236Z,66.30
2022-11-30T13:26:43.955Z,66.20
2022-11-30T13:29:36.412Z,66.20
2022-11-30T13:32:17.696Z,66.20
2022-11-30T13:34:56.283Z,66.30
2022-11-30T13:37:27.314Z,66.30
2022-11-30T13:39:57.457Z,66.30
2022-11-30T13:42:34.311Z,66.30
2022-11-30T13:45:19.497Z,66.40
2022-11-30T13:47:49.616Z,66.10
2022-11-30T13:50:21.571Z,66.30
2022-11-30T13:53:20.096Z,66.30
2022-11-30T13:55:58.380Z,66.20
2022-11-30T13:58:26.699Z,66.30
2022-11-30T14:01:22.824Z,66.50
2022-11-30T14:04:36.249Z,66.30
2022-11-30T14:07:09.897Z,66.40
2022-11-30T14:10:22.653Z,66.50
2022-11-30T14:13:00.583Z,66.50
2022-11-30T14:15:53.880Z,66.50
2022-11-30T14:18:30.182Z,66.50
2022-11-30T14:20:59.325Z,66.60
2022-11-30T14:23:29.430Z,66.60
2022-11-30T14:25:58.765Z,66.50
2022-11-30T14:28:31.300Z,66.50
2022-11-30T14:30:59.488Z,66.50
2022-11-30T14:33:32.648Z,66.50
2022-11-30T14:36:00.486Z,66.60
2022-11-30T14:38:30.084Z,66.50
2022-11-30T14:40:58.320Z,66.80
2022-11-30T14:43:28.121Z,66.60
2022-11-30T14:46:04.395Z,66.60
2022-11-30T14:48:34.039Z,66.50
2022-11-30T14:51:03.760Z,66.60
2022-11-30T14:53:37.027Z,66.50
2022-11-30T14:56:08.200Z,66.50
2022-11-30T14:58:41.753Z,66.50
2022-11-30T15:01:17.316Z,66.50
2022-11-30T15:03:45.996Z,66.50
2022-11-30T15:06:15.742Z,66.50
2022-11-30T15:08:47.143Z,66.60
2022-11-30T15:11:16.211Z,66.50
2022-11-30T15:13:48.852Z,66.50
2022-11-30T15:16:19.651Z,66.30
2022-11-30T15:18:47.656Z,66.50
2022-11-30T15:21:19.111Z,66.50
2022-11-30T15:23:51.162Z,66.40
2022-11-30T15:26:21.635Z,66.60
2022-11-30T15:28:54.719Z,66.50
2022-11-30T15:31:23.024Z,66.50
2022-11-30T15:33:50.953Z,66.50
2022-11-30T15:36:32.486Z,66.60
2022-11-30T15:39:02.177Z,66.50
2022-11-30T15:41:30.779Z,66.40
2022-11-30T15:44:00.296Z,66.40
2022-11-30T15:46:33.500Z,66.60
2022-11-30T15:49:18.538Z,66.70
2022-11-30T15:51:49.291Z,66.40
2022-11-30T15:54:18.983Z,66.50
2022-11-30T15:56:57.268Z,66.70
2022-11-30T15:59:29.041Z,66.50
2022-11-30T16:02:05.265Z,66.80
2022-11-30T16:05:13.917Z,66.80
2022-11-30T16:07:49.867Z,66.50
2022-11-30T16:10:20.277Z,66.50
2022-11-30T16:12:48.251Z,66.60
2022-11-30T16:15:20.198Z,66.50
2022-11-30T16:17:48.243Z,66.50
2022-11-30T16:20:17.169Z,66.50
2022-11-30T16:22:45.576Z,66.70
2022-11-30T16:25:15.118Z,66.70
2022-11-30T16:27:43.352Z,66.60
2022-11-30T16:30:15.001Z,66.60
2022-11-30T16:32:44.454Z,66.50
2022-11-30T16:35:21.960Z,66.50
2022-11-30T16:37:50.010Z,66.60
2022-11-30T16:40:18.051Z,66.60
2022-11-30T16:42:46.257Z,66.50
2022-11-30T16:45:15.836Z,66.60
2022-11-30T16:47:45.892Z,66.50
2022-11-30T16:50:13.902Z,66.50
2022-11-30T16:52:42.618Z,66.50
2022-11-30T16:55:15.811Z,66.50
2022-11-30T16:57:44.233Z,66.50
2022-11-30T17:00:13.679Z,66.30
2022-11-30T17:02:44.840Z,66.60
2022-11-30T17:05:14.439Z,66.40
2022-11-30T17:07:42.849Z,66.40
2022-11-30T17:10:11.590Z,66.60
2022-11-30T17:12:40.612Z,66.50
2022-11-30T17:15:11.385Z,66.30
2022-11-30T17:17:39.720Z,66.50
2022-11-30T17:20:09.148Z,66.60
2022-11-30T17:22:40.374Z,66.60
2022-11-30T17:25:09.936Z,66.40
2022-11-30T17:27:38.139Z,66.50
2022-11-30T17:30:07.468Z,66.60
2022-11-30T17:32:35.715Z,66.60
2022-11-30T17:35:03.738Z,66.40
2022-11-30T17:37:32.157Z,66.60
2022-11-30T17:40:01.567Z,66.60
2022-11-30T17:42:30.080Z,66.40
2022-11-30T17:44:57.959Z,66.60
2022-11-30T17:47:26.380Z,66.40
2022-11-30T17:49:54.278Z,66.70
2022-11-30T17:52:22.544Z,66.70
2022-11-30T17:54:50.769Z,66.60
2022-11-30T17:57:20.734Z,66.60
2022-11-30T17:59:48.699Z,66.50
2022-11-30T18:02:16.765Z,66.50
2022-11-30T18:04:45.496Z,66.70
2022-11-30T18:07:13.692Z,66.40
2022-11-30T18:09:43.041Z,66.50
2022-11-30T18:12:12.658Z,66.30
2022-11-30T18:14:42.079Z,66.10
2022-11-30T18:17:10.000Z,66.20
2022-11-30T18:19:38.601Z,66.10
2022-11-30T18:22:06.617Z,65.90
2022-11-30T18:24:35.057Z,66.00
2022-11-30T18:27:02.992Z,66.00
2022-11-30T18:29:31.427Z,65.80
2022-11-30T18:32:00.752Z,65.90
2022-11-30T18:34:28.796Z,65.80
2022-11-30T18:36:56.680Z,65.80
2022-11-30T18:39:25.237Z,65.60
2022-11-30T18:41:53.223Z,65.80
2022-11-30T18:44:21.919Z,65.70
2022-11-30T18:46:50.157Z,65.50
2022-11-30T18:49:21.610Z,65.70
2022-11-30T18:51:49.582Z,65.80
2022-11-30T18:54:19.540Z,65.40
2022-11-30T18:56:50.657Z,65.60
2022-11-30T18:59:18.731Z,65.40
2022-11-30T19:01:47.186Z,65.30
2022-11-30T19:04:15.153Z,65.30
2022-11-30T19:06:44.782Z,65.20
2022-11-30T19:09:14.921Z,65.30
2022-11-30T19:11:43.567Z,65.30
2022-11-30T19:14:12.993Z,65.20
2022-11-30T19:16:41.748Z,65.20
2022-11-30T19:19:12.181Z,64.90
2022-11-30T19:21:40.690Z,65.00
2022-11-30T19:24:10.571Z,64.80
2022-11-30T19:26:40.705Z,64.90
2022-11-30T19:29:08.673Z,64.90
2022-11-30T19:31:36.990Z,64.90
2022-11-30T19:34:10.811Z,65.00
2022-11-30T19:36:41.271Z,64.90
2022-11-30T19:39:11.124Z,65.20
2022-11-30T19:41:40.652Z,65.40
2022-11-30T19:44:10.503Z,65.30
2022-11-30T19:46:38.587Z,65.40
2022-11-30T19:49:08.613Z,65.40
2022-11-30T19:51:36.699Z,65.60
2022-11-30T19:54:05.297Z,65.70
2022-11-30T19:56:35.909Z,65.80
2022-11-30T19:59:05.935Z,65.60
2022-11-30T20:01:34.337Z,65.50
2022-11-30T20:04:03.025Z,65.70
2022-11-30T20:06:31.904Z,65.70
2022-11-30T20:09:00.196Z,65.90
2022-11-30T20:11:28.454Z,65.60
2022-11-30T20:13:58.540Z,66.00
2022-11-30T20:16:27.220Z,66.50
2022-11-30T20:18:56.096Z,66.20
2022-11-30T20:21:25.281Z,66.00
2022-11-30T20:23:53.359Z,66.10
2022-11-30T20:26:22.822Z,66.10
2022-11-30T20:28:51.351Z,66.30
2022-11-30T20:31:22.652Z,66.40
2022-11-30T20:33:50.857Z,66.40
2022-11-30T20:36:19.402Z,66.30
2022-11-30T20:38:47.326Z,66.40
2022-11-30T20:41:16.468Z,66.50
2022-11-30T20:43:44.492Z,66.70
2022-11-30T20:46:17.005Z,66.70
2022-11-30T20:48:46.342Z,66.40
2022-11-30T20:51:30.211Z,66.50
2022-11-30T20:53:58.875Z,66.50
2022-11-30T20:56:27.135Z,66.70
2022-11-30T20:58:55.097Z,67.40
2022-11-30T21:01:23.771Z,66.80
2022-11-30T21:03:53.221Z,66.80
2022-11-30T21:06:21.248Z,66.90
2022-11-30T21:08:49.116Z,66.80
2022-11-30T21:11:18.428Z,66.70
2022-11-30T21:13:47.104Z,67.00
2022-11-30T21:16:16.337Z,66.90
2022-11-30T21:18:45.524Z,66.60
2022-11-30T21:21:15.611Z,67.00
2022-11-30T21:23:43.632Z,67.10
2022-11-30T21:26:15.954Z,67.00
2022-11-30T21:28:43.883Z,67.00
2022-11-30T21:31:11.782Z,67.00
2022-11-30T21:33:39.843Z,67.10
2022-11-30T21:36:08.935Z,66.90
2022-11-30T21:38:38.790Z,67.00
2022-11-30T21:41:06.847Z,66.80
2022-11-30T21:43:35.935Z,66.70
2022-11-30T21:46:05.305Z,66.70
2022-11-30T21:48:34.505Z,66.70
2022-11-30T21:51:03.480Z,66.60
2022-11-30T21:53:31.665Z,66.60
2022-11-30T21:56:05.268Z,66.50
2022-11-30T21:58:33.565Z,66.10
2022-11-30T22:01:03.483Z,66.30
2022-11-30T22:03:31.557Z,66.40
2022-11-30T22:06:00.824Z,66.30
2022-11-30T22:08:28.753Z,66.40
2022-11-30T22:10:59.224Z,66.60
2022-11-30T22:13:28.736Z,67.30
2022-11-30T22:16:00.916Z,66.40
2022-11-30T22:18:28.994Z,66.50
2022-11-30T22:21:03.748Z,66.50
2022-11-30T22:23:32.131Z,66.80
2022-11-30T22:26:11.473Z,66.60
2022-11-30T22:28:41.093Z,66.60
2022-11-30T22:31:10.446Z,66.80
2022-11-30T22:33:38.950Z,66.60
2022-11-30T22:36:07.551Z,66.80
2022-11-30T22:38:35.422Z,66.60
2022-11-30T22:41:07.235Z,66.90
2022-11-30T22:43:35.238Z,66.80
2022-11-30T22:46:06.213Z,67.00
2022-11-30T22:48:34.249Z,67.00
2022-11-30T22:51:06.382Z,66.90
2022-11-30T22:53:35.069Z,66.90
2022-11-30T22:56:04.660Z,66.80
2022-11-30T22:58:32.953Z,67.00
2022-11-30T23:01:10.896Z,67.00
2022-11-30T23:03:38.927Z,67.00
2022-11-30T23:06:06.985Z,67.10
2022-11-30T23:08:35.223Z,67.00
2022-11-30T23:11:04.537Z,67.10
2022-11-30T23:13:32.481Z,67.00
2022-11-30T23:16:01.084Z,67.20
2022-11-30T23:18:31.074Z,67.00
2022-11-30T23:21:05.040Z,66.90
2022-11-30T23:23:33.107Z,67.00
2022-11-30T23:26:09.862Z,67.10
2022-11-30T23:28:41.021Z,67.00
2022-11-30T23:31:10.123Z,67.20
2022-11-30T23:33:59.556Z,67.10
2022-11-30T23:36:27.895Z,67.10
2022-11-30T23:38:57.548Z,67.10
2022-11-30T23:41:26.091Z,67.00
2022-11-30T23:43:54.193Z,67.20
2022-11-30T23:46:25.331Z,67.10
2022-11-30T23:48:53.510Z,67.20
2022-11-30T23:51:23.056Z,67.30
2022-11-30T23:53:51.164Z,67.30
2022-11-30T23:56:20.089Z,67.40
2022-11-30T23:58:48.070Z,67.30
